Nashville, Indiana
Current Conditions -  °F | °C
As of 11:35 AM on Sunday 25 Jan 2015 (Local Time) from K1II Reporting Station
Broken Clouds Broken Clouds  
Wind Chill: 34°   Ceiling: 6500
Heat Index: 39°   Visibility: 10mi
Dew Point: 32°   Wind: 7mph
Humidity: 75%   Direction: 140°SE
Pressure: 29.68"   Gusts: NA
Location:  39.21°N, 86.25°W
Report Text: K1II 251635Z AUTO 14006KT 10SM BKN065 BKN120 04/00 A2968 RMK AO2
Loading
Personal Weather Stations






























Interactive Weather Map New forecast layout! Learn more

10-Day Weather Forecast

Advertisements
Track Severe Weather on mobile